Time;durP1;ratioP1;P1;durP2;ratioP2;P2;SDS_P1;SDS_P2;PMS_P1;PMS_P2;Temp;Humidity;BMP_temperature;BMP_pressure;BME280_temperature;BME280_humidity;BME280_pressure;Samples;Min_cycle;Max_cycle;Signal;HPM_P1;HPM_P2
2022/09/05 00:00:13;;;;;;;0.77;0.50;;;18.90;1.00;;;;;;5054368;28;20540;-74
2022/09/05 00:02:48;;;;;;;0.70;0.50;;;18.90;1.00;;;;;;5055621;28;20795;-75
2022/09/05 00:05:31;;;;;;;1.57;0.50;;;18.90;1.00;;;;;;5055460;28;20525;-75
2022/09/05 00:08:07;;;;;;;0.60;0.40;;;18.90;1.00;;;;;;5066106;28;20925;-74
2022/09/05 00:10:40;;;;;;;1.97;0.60;;;19.00;1.00;;;;;;5075973;28;20454;-74
2022/09/05 00:13:15;;;;;;;0.90;0.50;;;19.00;1.00;;;;;;5077137;28;20513;-75
2022/09/05 00:15:58;;;;;;;0.77;0.53;;;19.00;1.00;;;;;;5075591;28;20535;-75
2022/09/05 00:18:53;;;;;;;0.80;0.50;;;19.00;1.00;;;;;;5076983;28;20451;-75
2022/09/05 00:21:35;;;;;;;0.87;0.60;;;19.00;1.00;;;;;;5076805;28;20912;-74
2022/09/05 00:24:24;;;;;;;1.13;0.60;;;19.00;1.00;;;;;;5075074;28;20577;-74
2022/09/05 00:26:57;;;;;;;0.80;0.50;;;19.00;1.00;;;;;;5076731;28;20743;-75
2022/09/05 00:29:41;;;;;;;0.80;0.50;;;19.00;1.00;;;;;;5075020;28;20454;-74
2022/09/05 00:32:17;;;;;;;0.73;0.50;;;18.90;1.00;;;;;;5076546;28;20502;-74
2022/09/05 00:35:14;;;;;;;0.70;0.50;;;19.00;1.00;;;;;;5074911;28;20778;-74
2022/09/05 00:37:46;;;;;;;1.90;0.60;;;19.00;1.00;;;;;;5077115;28;20489;-74
2022/09/05 00:40:24;;;;;;;0.90;0.70;;;19.00;1.00;;;;;;5074961;28;20488;-74
2022/09/05 00:42:57;;;;;;;0.80;0.60;;;19.00;1.00;;;;;;5075795;28;20896;-74
2022/09/05 00:45:30;;;;;;;0.70;0.50;;;18.90;1.00;;;;;;5074535;28;20505;-74
2022/09/05 00:48:05;;;;;;;0.80;0.50;;;18.90;1.00;;;;;;5076077;28;20450;-75
2022/09/05 00:50:42;;;;;;;0.70;0.53;;;18.90;1.00;;;;;;5074836;28;20460;-74
2022/09/05 00:53:16;;;;;;;0.70;0.50;;;18.80;1.00;;;;;;5076243;28;20854;-74
2022/09/05 00:55:55;;;;;;;0.80;0.50;;;18.80;1.00;;;;;;5075846;28;20458;-74
2022/09/05 00:58:44;;;;;;;1.07;0.50;;;18.80;1.00;;;;;;5075800;28;20438;-74
2022/09/05 01:01:28;;;;;;;0.77;0.50;;;18.80;1.00;;;;;;5076190;28;20446;-74
2022/09/05 01:04:12;;;;;;;0.90;0.60;;;18.70;1.00;;;;;;5075307;28;20791;-74
2022/09/05 01:06:59;;;;;;;0.80;0.40;;;18.60;1.00;;;;;;5076855;28;20522;-74
2022/09/05 01:09:39;;;;;;;0.80;0.60;;;18.60;1.00;;;;;;5075199;28;20446;-74
2022/09/05 01:12:17;;;;;;;0.67;0.50;;;18.60;1.00;;;;;;5076781;28;20442;-74
2022/09/05 01:15:13;;;;;;;0.83;0.43;;;18.60;1.00;;;;;;5077316;28;20549;-74
2022/09/05 01:18:19;;;;;;;0.67;0.60;;;18.60;1.00;;;;;;5078946;28;20485;-74
2022/09/05 01:21:07;;;;;;;0.70;0.60;;;18.50;1.00;;;;;;5078911;28;20461;-75
2022/09/05 01:23:49;;;;;;;1.33;0.40;;;18.40;1.00;;;;;;5079332;28;20434;-74
2022/09/05 01:26:52;;;;;;;0.70;0.50;;;18.30;1.00;;;;;;5078699;28;20454;-75
2022/09/05 01:29:29;;;;;;;0.77;0.50;;;18.30;1.00;;;;;;4997636;28;20446;-74
2022/09/05 01:32:18;;;;;;;0.73;0.50;;;18.30;1.00;;;;;;5063854;28;20826;-75
2022/09/05 01:35:00;;;;;;;0.93;0.50;;;18.40;1.00;;;;;;5079843;28;20560;-75
2022/09/05 01:37:36;;;;;;;1.20;0.43;;;18.40;1.00;;;;;;5078431;28;20458;-74
2022/09/05 01:40:18;;;;;;;0.60;0.40;;;18.40;1.00;;;;;;5079631;28;20505;-74
2022/09/05 01:42:59;;;;;;;0.90;0.60;;;18.30;1.00;;;;;;5078826;28;20560;-74
2022/09/05 01:45:42;;;;;;;0.73;0.60;;;18.30;1.00;;;;;;5079007;28;20881;-75
2022/09/05 01:48:14;;;;;;;0.70;0.47;;;18.30;1.00;;;;;;5079434;28;20447;-74
2022/09/05 01:50:50;;;;;;;1.00;0.60;;;18.20;1.00;;;;;;5078074;28;20447;-75
2022/09/05 01:53:27;;;;;;;0.80;0.60;;;18.10;1.00;;;;;;5078699;28;20454;-74
2022/09/05 01:56:23;;;;;;;3.10;0.70;;;18.10;1.00;;;;;;5078195;28;20516;-74
2022/09/05 01:59:03;;;;;;;1.03;0.60;;;18.10;1.00;;;;;;5079178;28;20504;-74
2022/09/05 02:01:40;;;;;;;0.80;0.60;;;18.10;1.00;;;;;;5078664;28;20454;-74
2022/09/05 02:04:27;;;;;;;0.97;0.60;;;18.10;1.00;;;;;;5078914;28;20751;-74
2022/09/05 02:07:04;;;;;;;0.77;0.57;;;18.10;1.00;;;;;;5077534;28;20476;-74
2022/09/05 02:09:50;;;;;;;1.30;0.67;;;18.10;1.00;;;;;;5078474;28;20504;-74
2022/09/05 02:12:27;;;;;;;1.20;0.70;;;18.00;1.00;;;;;;5078194;28;20763;-75
2022/09/05 02:15:00;;;;;;;0.70;0.50;;;18.00;1.00;;;;;;5078926;28;20539;-75
2022/09/05 02:17:36;;;;;;;3.00;0.60;;;17.90;1.00;;;;;;5076810;28;20455;-73
2022/09/05 02:20:14;;;;;;;0.70;0.60;;;17.90;1.00;;;;;;5078745;28;20449;-74
2022/09/05 02:22:46;;;;;;;0.70;0.50;;;17.90;1.00;;;;;;5076939;28;20454;-74
2022/09/05 02:25:18;;;;;;;0.80;0.60;;;17.90;1.00;;;;;;5077638;28;20500;-74
2022/09/05 02:27:52;;;;;;;0.90;0.70;;;17.90;1.00;;;;;;5075905;28;20476;-74
2022/09/05 02:30:23;;;;;;;1.10;0.60;;;17.90;1.00;;;;;;5079066;28;20451;-74
2022/09/05 02:33:05;;;;;;;1.43;0.60;;;17.80;1.00;;;;;;5078368;28;20451;-74
2022/09/05 02:35:44;;;;;;;0.80;0.53;;;17.70;1.00;;;;;;5075735;28;20953;-74
2022/09/05 02:38:18;;;;;;;0.80;0.50;;;17.70;1.00;;;;;;5077778;28;20451;-75
2022/09/05 02:40:50;;;;;;;0.93;0.60;;;17.70;1.00;;;;;;5076656;28;20725;-74
2022/09/05 02:43:27;;;;;;;0.97;0.70;;;17.70;1.00;;;;;;5078812;28;20790;-73
2022/09/05 02:46:02;;;;;;;0.80;0.60;;;17.60;1.00;;;;;;5076885;28;20454;-74
2022/09/05 02:48:45;;;;;;;0.80;0.60;;;17.60;1.00;;;;;;5076941;28;20886;-74
2022/09/05 02:51:16;;;;;;;1.10;0.60;;;17.50;1.00;;;;;;5077133;28;20813;-73
2022/09/05 02:53:48;;;;;;;0.83;0.60;;;17.50;1.00;;;;;;5077932;28;20812;-73
2022/09/05 02:56:34;;;;;;;1.60;0.70;;;17.60;1.00;;;;;;5076721;28;20806;-73
2022/09/05 02:59:12;;;;;;;1.17;0.50;;;17.60;1.00;;;;;;5078174;28;20442;-76
2022/09/05 03:01:55;;;;;;;0.90;0.70;;;17.60;1.00;;;;;;5077079;28;20556;-75
2022/09/05 03:04:37;;;;;;;0.80;0.50;;;17.50;1.00;;;;;;5077636;28;20512;-76
2022/09/05 03:07:22;;;;;;;0.80;0.60;;;17.50;1.00;;;;;;5076670;28;20450;-76
2022/09/05 03:10:17;;;;;;;0.90;0.50;;;17.40;1.00;;;;;;5078145;28;20504;-75
2022/09/05 03:13:14;;;;;;;1.17;0.50;;;17.40;1.00;;;;;;5077758;28;20463;-75
2022/09/05 03:16:09;;;;;;;1.00;0.70;;;17.30;1.00;;;;;;5062865;28;20490;-74
2022/09/05 03:19:12;;;;;;;0.90;0.63;;;17.40;1.00;;;;;;5078279;28;20483;-75
2022/09/05 03:22:27;;;;;;;1.00;0.70;;;17.40;1.00;;;;;;5079013;28;20454;-75
2022/09/05 03:25:33;;;;;;;0.97;0.63;;;17.40;1.00;;;;;;5055779;28;20501;-75
2022/09/05 03:28:48;;;;;;;0.70;0.60;;;17.40;1.00;;;;;;5079641;28;20439;-74
2022/09/05 03:31:30;;;;;;;0.80;0.60;;;17.60;1.00;;;;;;5079606;28;20832;-75
2022/09/05 03:34:31;;;;;;;0.97;0.60;;;17.80;1.00;;;;;;5080559;28;20465;-74
2022/09/05 03:37:44;;;;;;;1.30;0.60;;;17.90;1.00;;;;;;5067571;28;20461;-75
2022/09/05 03:40:41;;;;;;;0.83;0.57;;;17.90;1.00;;;;;;5049646;28;20462;-75
2022/09/05 03:43:35;;;;;;;1.23;0.60;;;18.00;1.00;;;;;;5076704;28;20529;-75
2022/09/05 03:46:11;;;;;;;0.90;0.63;;;17.90;1.00;;;;;;5076259;28;20458;-75
2022/09/05 03:49:00;;;;;;;1.00;0.60;;;17.80;1.00;;;;;;5076639;28;20443;-75
2022/09/05 03:51:34;;;;;;;0.70;0.50;;;17.70;1.00;;;;;;5076609;28;20458;-75
2022/09/05 03:54:28;;;;;;;2.23;0.60;;;17.80;1.00;;;;;;5077491;28;20665;-75
2022/09/05 03:57:24;;;;;;;0.80;0.60;;;17.80;1.00;;;;;;5077157;28;20458;-75
2022/09/05 04:00:06;;;;;;;0.70;0.50;;;17.70;1.00;;;;;;5072424;28;20458;-75
2022/09/05 04:02:44;;;;;;;1.80;0.80;;;17.70;1.00;;;;;;5075141;28;20454;-74
2022/09/05 04:05:16;;;;;;;1.00;0.70;;;17.70;1.00;;;;;;5076981;28;20506;-75
2022/09/05 04:07:45;;;;;;;0.73;0.53;;;17.70;1.00;;;;;;5075310;28;20486;-74
2022/09/05 04:10:26;;;;;;;2.30;0.60;;;17.70;1.00;;;;;;5076540;28;20508;-75
2022/09/05 04:12:58;;;;;;;0.80;0.60;;;17.70;1.00;;;;;;5075748;28;20719;-75
2022/09/05 04:15:32;;;;;;;2.13;0.50;;;17.70;1.00;;;;;;5074755;28;20483;-73
2022/09/05 04:18:03;;;;;;;0.80;0.57;;;17.70;1.00;;;;;;5075787;28;20504;-75
2022/09/05 04:20:38;;;;;;;1.63;0.60;;;17.70;1.00;;;;;;5073939;28;20449;-74
2022/09/05 04:23:12;;;;;;;1.03;0.60;;;17.70;1.00;;;;;;5075947;28;20484;-74
2022/09/05 04:25:52;;;;;;;1.00;0.60;;;17.70;1.00;;;;;;5075928;28;20870;-75
2022/09/05 04:28:35;;;;;;;1.00;0.60;;;17.80;1.00;;;;;;5075900;28;20495;-75
2022/09/05 04:31:10;;;;;;;0.80;0.60;;;17.80;1.00;;;;;;5074890;28;20737;-75
2022/09/05 04:33:43;;;;;;;0.90;0.60;;;17.70;1.00;;;;;;5076524;28;20501;-74
2022/09/05 04:36:18;;;;;;;1.33;0.63;;;17.60;1.00;;;;;;5073910;28;20493;-75
2022/09/05 04:38:46;;;;;;;1.43;0.70;;;17.50;1.00;;;;;;5075783;28;20446;-75
2022/09/05 04:41:15;;;;;;;0.80;0.60;;;17.60;1.00;;;;;;5076266;28;20952;-75
2022/09/05 04:43:47;;;;;;;1.10;0.60;;;17.60;1.00;;;;;;5077033;28;20486;-75
2022/09/05 04:46:21;;;;;;;1.00;0.70;;;17.60;1.00;;;;;;5075146;28;20489;-75
2022/09/05 04:48:59;;;;;;;1.00;0.80;;;17.60;1.00;;;;;;5077592;28;20540;-75
2022/09/05 04:51:46;;;;;;;0.90;0.70;;;17.60;1.00;;;;;;5078567;28;20496;-74
2022/09/05 04:54:25;;;;;;;1.20;0.70;;;17.60;1.00;;;;;;5079375;28;20751;-74
2022/09/05 04:57:00;;;;;;;1.10;0.77;;;17.60;1.00;;;;;;5078063;28;20967;-75
2022/09/05 04:59:36;;;;;;;0.80;0.57;;;17.50;1.00;;;;;;5079246;28;20503;-75
2022/09/05 05:02:12;;;;;;;0.80;0.50;;;17.60;1.00;;;;;;5077739;28;20458;-75
2022/09/05 05:04:39;;;;;;;1.40;0.70;;;17.50;1.00;;;;;;5078744;28;20446;-75
2022/09/05 05:07:13;;;;;;;1.50;0.60;;;17.50;1.00;;;;;;5077156;28;20783;-75
2022/09/05 05:09:44;;;;;;;0.97;0.70;;;17.50;1.00;;;;;;5077008;28;20803;-75
2022/09/05 05:12:21;;;;;;;1.00;0.73;;;17.50;1.00;;;;;;5077669;28;20454;-75
2022/09/05 05:14:53;;;;;;;1.70;0.63;;;17.60;1.00;;;;;;5079103;28;20753;-75
2022/09/05 05:17:32;;;;;;;0.87;0.57;;;17.60;1.00;;;;;;5077902;28;20569;-75
2022/09/05 05:20:09;;;;;;;0.70;0.53;;;17.60;1.00;;;;;;5080169;28;20450;-75
2022/09/05 05:22:38;;;;;;;0.97;0.60;;;17.60;1.00;;;;;;5079032;28;20529;-75
2022/09/05 05:25:11;;;;;;;1.87;0.70;;;17.70;1.00;;;;;;5079520;28;20916;-75
2022/09/05 05:27:44;;;;;;;0.70;0.53;;;17.70;1.00;;;;;;5077244;28;20453;-75
2022/09/05 05:30:25;;;;;;;1.10;0.60;;;17.90;1.00;;;;;;5078794;28;20430;-75
2022/09/05 05:32:55;;;;;;;1.50;0.70;;;17.90;1.00;;;;;;5077600;28;20474;-75
2022/09/05 05:35:27;;;;;;;0.77;0.60;;;17.90;1.00;;;;;;5078159;28;21015;-75
2022/09/05 05:38:01;;;;;;;1.50;0.67;;;17.90;1.00;;;;;;5078977;28;20639;-75
2022/09/05 05:40:31;;;;;;;1.20;0.70;;;17.90;1.00;;;;;;5059713;28;20888;-76
2022/09/05 05:43:15;;;;;;;1.00;0.70;;;18.00;1.00;;;;;;5079279;28;20442;-76
2022/09/05 05:45:43;;;;;;;1.43;0.70;;;18.00;1.00;;;;;;5078338;28;20477;-75
2022/09/05 05:48:30;;;;;;;2.10;0.87;;;18.00;1.00;;;;;;5078651;28;20489;-75
2022/09/05 05:51:23;;;;;;;0.90;0.60;;;18.00;1.00;;;;;;5076579;28;20833;-77
2022/09/05 05:53:56;;;;;;;0.77;0.60;;;18.00;1.00;;;;;;5078353;28;20454;-76
2022/09/05 05:56:55;;;;;;;0.60;0.50;;;17.90;1.00;;;;;;5077664;28;20490;-75
2022/09/05 05:59:54;;;;;;;1.03;0.70;;;17.90;1.00;;;;;;5044902;28;20508;-74
2022/09/05 06:03:01;;;;;;;3.50;1.20;;;17.90;1.00;;;;;;5072411;28;20778;-75
2022/09/05 06:05:47;;;;;;;4.80;2.77;;;18.10;1.00;;;;;;5074723;28;20512;-74
2022/09/05 06:08:33;;;;;;;2.57;1.30;;;18.30;1.00;;;;;;5078891;28;20494;-73
2022/09/05 06:11:18;;;;;;;1.40;0.90;;;18.30;1.00;;;;;;5077438;28;20458;-73
2022/09/05 06:14:37;;;;;;;1.33;0.77;;;18.40;1.00;;;;;;5077995;28;20497;-73
2022/09/05 06:17:34;;;;;;;1.17;0.80;;;18.50;1.00;;;;;;4991919;28;20822;-73
2022/09/05 06:20:27;;;;;;;0.70;0.60;;;18.40;1.00;;;;;;5094034;28;21111;-73
2022/09/05 06:23:36;;;;;;;2.00;0.70;;;18.50;1.00;;;;;;5097036;28;20525;-73
2022/09/05 06:26:43;;;;;;;1.60;0.90;;;18.50;1.00;;;;;;5048731;28;20453;-73
2022/09/05 06:29:27;;;;;;;1.17;0.90;;;18.40;1.00;;;;;;5080149;28;21121;-73
2022/09/05 06:32:06;;;;;;;1.17;0.80;;;18.30;1.00;;;;;;5094399;28;20449;-73
2022/09/05 06:35:05;;;;;;;0.90;0.60;;;18.10;1.00;;;;;;5096682;28;20495;-75
2022/09/05 06:37:43;;;;;;;1.10;0.80;;;18.10;1.00;;;;;;5080959;28;21054;-73
2022/09/05 06:40:17;;;;;;;1.30;0.80;;;18.10;1.00;;;;;;5086473;28;20433;-74
2022/09/05 06:43:17;;;;;;;1.00;0.70;;;18.10;1.00;;;;;;5075885;28;20453;-76
2022/09/05 06:46:20;;;;;;;0.90;0.67;;;18.20;1.00;;;;;;5074235;28;20454;-76
2022/09/05 06:48:51;;;;;;;0.97;0.57;;;18.30;1.00;;;;;;5074650;28;20521;-76
2022/09/05 06:51:48;;;;;;;1.37;0.70;;;18.50;1.00;;;;;;5075468;28;20563;-74
2022/09/05 06:54:41;;;;;;;1.40;0.70;;;18.70;1.00;;;;;;5068896;28;20503;-73
2022/09/05 06:57:32;;;;;;;3.50;0.70;;;18.70;1.00;;;;;;5075655;28;20505;-73
2022/09/05 07:00:14;;;;;;;1.37;0.90;;;18.80;1.00;;;;;;5093286;28;20461;-74
2022/09/05 07:02:56;;;;;;;2.10;0.60;;;18.90;1.00;;;;;;5077963;28;20447;-72
2022/09/05 07:05:34;;;;;;;0.90;0.60;;;18.90;1.00;;;;;;5087207;28;20448;-73
2022/09/05 07:08:14;;;;;;;2.07;0.60;;;19.00;1.00;;;;;;5087510;28;20489;-72
2022/09/05 07:10:48;;;;;;;1.43;0.70;;;19.00;1.00;;;;;;5090490;28;20911;-72
2022/09/05 07:13:19;;;;;;;0.87;0.60;;;19.00;1.00;;;;;;5092225;28;20448;-71
2022/09/05 07:15:56;;;;;;;1.00;0.73;;;19.10;1.00;;;;;;5094766;28;20481;-72
2022/09/05 07:18:30;;;;;;;0.77;0.60;;;19.20;1.00;;;;;;5095919;28;20449;-73
2022/09/05 07:21:01;;;;;;;1.63;0.70;;;19.30;1.00;;;;;;5092766;28;20887;-73
2022/09/05 07:23:43;;;;;;;0.73;0.50;;;19.40;1.00;;;;;;5082399;28;20493;-73
2022/09/05 07:26:12;;;;;;;1.00;0.70;;;19.50;1.00;;;;;;5075609;28;20824;-72
2022/09/05 07:28:43;;;;;;;22.90;15.10;;;19.60;1.00;;;;;;5075711;28;20901;-72
2022/09/05 07:31:15;;;;;;;1.87;1.10;;;19.80;1.00;;;;;;5074340;28;20458;-73
2022/09/05 07:33:47;;;;;;;2.33;1.70;;;19.90;99.90;;;;;;5077217;28;20447;-73
2022/09/05 07:36:19;;;;;;;1.13;0.80;;;20.10;99.90;;;;;;5073841;28;20490;-73
2022/09/05 07:38:49;;;;;;;1.00;0.60;;;20.20;1.00;;;;;;5074592;28;20825;-74
2022/09/05 07:41:22;;;;;;;1.10;0.60;;;20.30;1.00;;;;;;5073909;28;20485;-75
2022/09/05 07:43:58;;;;;;;0.90;0.50;;;20.40;1.00;;;;;;5076273;28;20457;-75
2022/09/05 07:46:28;;;;;;;1.40;0.70;;;20.60;99.90;;;;;;5075869;28;20449;-74
2022/09/05 07:49:01;;;;;;;1.20;0.70;;;20.60;1.00;;;;;;5079415;28;20598;-75
2022/09/05 07:51:32;;;;;;;0.70;0.50;;;20.70;1.00;;;;;;5080349;28;20249;-74
2022/09/05 07:54:05;;;;;;;0.90;0.60;;;20.80;1.00;;;;;;5081970;28;20454;-74
2022/09/05 07:56:45;;;;;;;0.80;0.60;;;21.00;99.90;;;;;;5085770;28;20513;-75
2022/09/05 07:59:15;;;;;;;1.67;0.70;;;21.20;1.00;;;;;;5076588;28;20443;-75
2022/09/05 08:01:45;;;;;;;1.00;0.70;;;21.30;1.00;;;;;;5089900;28;20460;-75
2022/09/05 08:04:24;;;;;;;3.80;3.00;;;21.40;99.90;;;;;;5083249;28;20765;-76
2022/09/05 08:06:53;;;;;;;2.20;1.40;;;21.50;1.00;;;;;;5076550;28;20450;-76
2022/09/05 08:09:25;;;;;;;10.83;2.53;;;21.70;1.00;;;;;;5076809;28;20833;-76
2022/09/05 08:11:54;;;;;;;1.57;0.70;;;21.70;1.00;;;;;;5073747;28;20824;-74
2022/09/05 08:14:42;;;;;;;1.77;0.60;;;21.80;99.90;;;;;;5075434;28;20446;-75
2022/09/05 08:17:14;;;;;;;0.70;0.50;;;21.90;99.90;;;;;;5089733;28;20971;-75
2022/09/05 08:20:07;;;;;;;0.63;0.50;;;22.00;99.90;;;;;;5081248;28;20454;-75
2022/09/05 08:22:44;;;;;;;0.80;0.60;;;22.10;1.00;;;;;;5083169;28;20999;-75
2022/09/05 08:25:16;;;;;;;0.60;0.50;;;22.20;1.00;;;;;;5087534;28;20445;-74
2022/09/05 08:28:01;;;;;;;0.80;0.60;;;22.40;1.00;;;;;;5093772;28;20500;-74
2022/09/05 08:30:33;;;;;;;1.17;0.60;;;22.50;1.00;;;;;;5082986;28;20736;-73
2022/09/05 08:33:04;;;;;;;2.07;0.70;;;22.60;1.00;;;;;;5088386;28;20469;-73
2022/09/05 08:35:38;;;;;;;0.80;0.70;;;22.70;1.00;;;;;;5088455;28;20530;-73
2022/09/05 08:38:06;;;;;;;1.93;0.50;;;22.80;1.00;;;;;;5104065;28;20430;-74
2022/09/05 08:40:38;;;;;;;0.70;0.50;;;22.80;1.00;;;;;;5089759;28;20450;-73
2022/09/05 08:43:13;;;;;;;8.20;5.00;;;22.90;99.90;;;;;;5086178;28;20449;-74
2022/09/05 08:45:44;;;;;;;2.30;0.57;;;22.90;99.90;;;;;;5075804;28;20461;-75
2022/09/05 08:48:20;;;;;;;0.80;0.50;;;23.00;99.90;;;;;;5095858;28;21037;-75
2022/09/05 08:51:09;;;;;;;0.60;0.50;;;23.10;99.90;;;;;;5089611;28;20599;-75
2022/09/05 08:53:49;;;;;;;0.70;0.60;;;23.30;99.90;;;;;;5076850;28;20454;-75
2022/09/05 08:56:21;;;;;;;2.30;0.90;;;23.30;99.90;;;;;;5086991;28;20854;-74
2022/09/05 08:59:03;;;;;;;7.87;4.83;;;23.40;99.90;;;;;;5082037;28;20511;-74
2022/09/05 09:01:34;;;;;;;1.10;0.80;;;23.60;99.90;;;;;;5086384;28;20462;-74
2022/09/05 09:04:15;;;;;;;1.08;0.70;;;23.70;99.90;;;;;;5090455;28;20440;-74
2022/09/05 09:07:22;;;;;;;0.80;0.50;;;23.70;99.90;;;;;;5075671;28;20670;-75
2022/09/05 09:10:00;;;;;;;1.27;0.50;;;23.90;99.90;;;;;;4994180;28;20529;-73
2022/09/05 09:12:55;;;;;;;0.83;0.60;;;23.90;95.10;;;;;;5066963;28;20541;-76
2022/09/05 09:15:28;;;;;;;1.47;0.60;;;24.10;80.00;;;;;;5076708;28;20446;-74
2022/09/05 09:17:55;;;;;;;0.70;0.50;;;24.10;10.60;;;;;;5077940;28;20497;-72
2022/09/05 09:20:35;;;;;;;0.90;0.60;;;24.10;9.50;;;;;;5077767;28;20918;-75
2022/09/05 09:23:06;;;;;;;1.10;0.80;;;24.10;15.80;;;;;;5077796;28;20441;-71
2022/09/05 09:25:41;;;;;;;1.00;0.70;;;24.20;30.20;;;;;;5074824;28;20431;-71
2022/09/05 09:28:41;;;;;;;1.63;0.60;;;24.30;34.40;;;;;;5075432;28;20971;-69
2022/09/05 09:31:16;;;;;;;0.80;0.60;;;24.50;13.60;;;;;;5083277;28;20468;-72
2022/09/05 09:33:49;;;;;;;1.10;0.60;;;24.60;1.00;;;;;;5079146;28;20815;-72
2022/09/05 09:36:56;;;;;;;0.90;0.70;;;24.70;1.00;;;;;;5089658;28;20526;-69
2022/09/05 09:39:36;;;;;;;3.10;0.63;;;24.80;1.00;;;;;;5090286;28;20445;-71
2022/09/05 09:42:24;;;;;;;0.70;0.60;;;24.80;1.00;;;;;;5073233;28;20446;-72
2022/09/05 09:45:17;;;;;;;3.27;0.80;;;24.80;1.00;;;;;;5075841;28;20458;-72
2022/09/05 09:48:07;;;;;;;0.70;0.60;;;25.00;1.00;;;;;;5072198;28;20459;-70
2022/09/05 09:50:59;;;;;;;0.90;0.50;;;25.10;1.00;;;;;;5077490;28;20548;-71
2022/09/05 09:53:44;;;;;;;1.73;0.70;;;25.20;1.00;;;;;;5090032;28;20477;-71
2022/09/05 09:56:59;;;;;;;0.83;0.60;;;25.40;1.00;;;;;;5091558;28;20567;-71
2022/09/05 09:59:47;;;;;;;2.00;1.00;;;25.50;1.00;;;;;;5007170;28;20511;-70
2022/09/05 10:02:36;;;;;;;1.20;0.70;;;25.70;1.00;;;;;;5067695;28;20445;-70
2022/09/05 10:05:32;;;;;;;0.83;0.60;;;26.00;1.00;;;;;;5094397;28;20463;-71
2022/09/05 10:08:18;;;;;;;4.10;1.17;;;26.30;1.00;;;;;;5080552;28;20937;-72
2022/09/05 10:11:20;;;;;;;1.30;0.60;;;26.50;1.00;;;;;;5084842;28;20462;-70
2022/09/05 10:14:16;;;;;;;0.90;0.60;;;26.70;1.00;;;;;;5069802;28;20536;-70
2022/09/05 10:17:24;;;;;;;1.37;0.50;;;26.80;1.00;;;;;;5091070;28;20489;-72
2022/09/05 10:20:23;;;;;;;0.90;0.60;;;27.20;1.00;;;;;;5079676;28;20890;-70
2022/09/05 10:23:04;;;;;;;0.80;0.57;;;27.50;1.00;;;;;;5073926;28;20517;-71
2022/09/05 10:26:18;;;;;;;1.87;0.60;;;27.80;1.00;;;;;;5076611;28;20535;-70
2022/09/05 10:29:01;;;;;;;1.30;0.50;;;28.00;1.00;;;;;;5072794;28;20973;-70
2022/09/05 10:31:46;;;;;;;1.40;0.53;;;28.30;1.00;;;;;;5083461;28;20497;-70
2022/09/05 10:34:22;;;;;;;0.80;0.50;;;28.60;1.00;;;;;;5083438;28;20458;-71
2022/09/05 10:36:53;;;;;;;0.80;0.60;;;28.60;1.00;;;;;;5087931;28;20473;-72
2022/09/05 10:39:25;;;;;;;0.80;0.50;;;28.70;1.00;;;;;;5080382;28;21124;-72
2022/09/05 10:41:57;;;;;;;0.97;0.60;;;28.60;1.00;;;;;;5080187;28;20921;-71
2022/09/05 10:44:34;;;;;;;4.47;0.80;;;28.80;1.00;;;;;;5070782;28;20459;-71
2022/09/05 10:47:18;;;;;;;0.80;0.50;;;28.80;1.00;;;;;;5075310;28;20489;-71
2022/09/05 10:49:54;;;;;;;0.73;0.50;;;28.90;1.00;;;;;;5075054;28;20473;-71
2022/09/05 10:52:37;;;;;;;0.60;0.50;;;29.10;1.00;;;;;;5083771;28;20472;-71
2022/09/05 10:55:17;;;;;;;1.00;0.70;;;28.90;1.00;;;;;;5095555;28;20907;-71
2022/09/05 10:57:58;;;;;;;0.80;0.50;;;29.10;1.00;;;;;;5092517;28;20484;-71
2022/09/05 11:00:51;;;;;;;0.53;0.40;;;29.20;1.00;;;;;;5092402;28;20544;-71
2022/09/05 11:03:28;;;;;;;1.30;0.40;;;29.50;1.00;;;;;;5080548;28;20897;-71
2022/09/05 11:05:58;;;;;;;0.60;0.40;;;29.50;1.00;;;;;;5073884;28;20480;-71
2022/09/05 11:08:34;;;;;;;0.70;0.50;;;29.70;1.00;;;;;;5074495;28;20574;-72
2022/09/05 11:11:12;;;;;;;0.67;0.50;;;30.00;1.00;;;;;;5088886;28;21116;-72
2022/09/05 11:13:45;;;;;;;0.70;0.50;;;30.30;1.00;;;;;;5085680;28;20486;-71
2022/09/05 11:16:26;;;;;;;1.90;0.50;;;30.60;1.00;;;;;;5071871;28;20458;-71
2022/09/05 11:19:02;;;;;;;0.60;0.50;;;30.50;1.00;;;;;;5074155;28;20460;-72
2022/09/05 11:21:41;;;;;;;0.70;0.50;;;30.60;1.00;;;;;;5073864;28;20454;-71
2022/09/05 11:24:23;;;;;;;0.50;0.43;;;30.60;1.00;;;;;;5075236;28;20446;-70
2022/09/05 11:26:57;;;;;;;0.90;0.60;;;30.70;1.00;;;;;;5056147;28;20464;-72
2022/09/05 11:29:33;;;;;;;0.60;0.50;;;30.30;1.00;;;;;;5056991;28;20462;-72
2022/09/05 11:32:32;;;;;;;0.67;0.60;;;30.10;1.00;;;;;;5073340;28;20505;-72
2022/09/05 11:35:23;;;;;;;2.40;0.50;;;29.90;1.00;;;;;;5075388;28;20811;-71
2022/09/05 11:38:19;;;;;;;0.70;0.60;;;29.70;1.00;;;;;;5074044;28;20972;-71
2022/09/05 11:41:01;;;;;;;0.97;0.50;;;29.70;1.00;;;;;;5071001;28;20470;-71
2022/09/05 11:43:58;;;;;;;0.60;0.50;;;29.30;1.00;;;;;;5075506;28;20544;-71
2022/09/05 11:46:34;;;;;;;0.60;0.50;;;29.40;1.00;;;;;;5072869;28;20446;-73
2022/09/05 11:49:39;;;;;;;1.07;0.60;;;29.20;1.00;;;;;;5072794;28;20446;-72
2022/09/05 11:52:56;;;;;;;0.73;0.50;;;29.20;1.00;;;;;;5072924;28;20458;-72
2022/09/05 11:55:45;;;;;;;0.67;0.50;;;29.50;1.00;;;;;;5055760;28;20482;-73
2022/09/05 11:58:44;;;;;;;0.83;0.50;;;29.70;1.00;;;;;;5055985;28;20479;-71
2022/09/05 12:01:24;;;;;;;0.70;0.50;;;29.80;1.00;;;;;;5072385;28;20464;-71
2022/09/05 12:04:18;;;;;;;1.10;0.53;;;29.70;1.00;;;;;;5075471;28;20504;-72
2022/09/05 12:07:23;;;;;;;1.93;0.50;;;29.70;1.00;;;;;;5074525;28;21128;-72
2022/09/05 12:10:16;;;;;;;0.80;0.57;;;29.90;1.00;;;;;;5074986;28;20446;-69
2022/09/05 12:13:01;;;;;;;0.80;0.50;;;30.10;1.00;;;;;;5073595;28;20814;-69
2022/09/05 12:15:32;;;;;;;0.50;0.40;;;30.00;1.00;;;;;;5073327;28;20435;-69
2022/09/05 12:18:10;;;;;;;0.93;0.50;;;29.90;1.00;;;;;;5074608;28;20485;-69
2022/09/05 12:20:49;;;;;;;0.60;0.60;;;29.90;1.00;;;;;;5072681;28;20524;-69
2022/09/05 12:23:27;;;;;;;2.00;0.83;;;30.10;1.00;;;;;;5077759;28;20493;-69
2022/09/05 12:26:00;;;;;;;0.70;0.50;;;30.10;1.00;;;;;;5069774;28;20480;-69
2022/09/05 12:28:40;;;;;;;1.07;0.60;;;30.20;1.00;;;;;;5074460;28;20454;-69
2022/09/05 12:31:22;;;;;;;1.00;0.60;;;30.30;1.00;;;;;;5074829;28;20485;-72
2022/09/05 12:33:51;;;;;;;0.80;0.50;;;30.10;1.00;;;;;;5056440;28;20878;-71
2022/09/05 12:36:27;;;;;;;0.77;0.50;;;30.40;1.00;;;;;;5089166;28;20461;-72
2022/09/05 12:39:01;;;;;;;0.60;0.50;;;30.50;1.00;;;;;;5093728;28;20433;-72
2022/09/05 12:41:41;;;;;;;0.60;0.43;;;30.60;1.00;;;;;;5091049;28;20452;-70
2022/09/05 12:44:46;;;;;;;0.50;0.40;;;30.90;1.00;;;;;;5092070;28;20448;-70
2022/09/05 12:47:16;;;;;;;0.80;0.60;;;30.80;1.00;;;;;;5040131;28;20465;-71
2022/09/05 12:49:49;;;;;;;0.70;0.53;;;30.90;1.00;;;;;;5093334;28;21071;-70
2022/09/05 12:52:23;;;;;;;1.00;0.50;;;30.90;1.00;;;;;;5091678;28;20854;-69
2022/09/05 12:54:55;;;;;;;0.60;0.50;;;31.10;1.00;;;;;;5091678;28;20781;-71
2022/09/05 12:57:26;;;;;;;1.03;0.60;;;31.10;1.00;;;;;;5092842;28;20950;-72
2022/09/05 12:59:57;;;;;;;1.00;0.50;;;31.00;1.00;;;;;;5091649;28;20434;-70
2022/09/05 13:02:30;;;;;;;0.60;0.47;;;31.00;1.00;;;;;;5091650;28;20485;-70
2022/09/05 13:05:02;;;;;;;1.00;0.53;;;30.90;1.00;;;;;;5092586;28;20522;-69
2022/09/05 13:07:39;;;;;;;0.70;0.43;;;30.70;1.00;;;;;;5091528;28;20640;-69
2022/09/05 13:10:15;;;;;;;1.57;0.50;;;30.50;1.00;;;;;;5093286;28;20453;-70
2022/09/05 13:12:47;;;;;;;1.97;0.40;;;30.00;1.00;;;;;;5095076;28;20551;-70
2022/09/05 13:15:22;;;;;;;0.70;0.60;;;29.90;1.00;;;;;;5095090;28;20451;-71
2022/09/05 13:17:53;;;;;;;3.90;0.57;;;30.00;1.00;;;;;;5095240;28;20511;-70
2022/09/05 13:20:32;;;;;;;0.57;0.40;;;29.90;1.00;;;;;;5094924;28;20440;-70
2022/09/05 13:23:05;;;;;;;0.67;0.60;;;30.00;1.00;;;;;;5094907;28;20457;-70
2022/09/05 13:25:35;;;;;;;0.60;0.50;;;30.00;1.00;;;;;;5094314;28;20566;-71
2022/09/05 13:28:07;;;;;;;0.60;0.60;;;30.20;1.00;;;;;;5095873;28;20507;-70
2022/09/05 13:30:48;;;;;;;0.80;0.50;;;30.50;1.00;;;;;;5094271;28;20450;-70
2022/09/05 13:33:19;;;;;;;0.70;0.47;;;30.20;1.00;;;;;;5094175;28;20931;-71
2022/09/05 13:36:02;;;;;;;0.90;0.70;;;30.00;1.00;;;;;;5094638;28;20489;-70
2022/09/05 13:38:41;;;;;;;0.80;0.60;;;30.00;1.00;;;;;;5091298;28;20477;-70
2022/09/05 13:41:15;;;;;;;0.90;0.60;;;30.00;1.00;;;;;;5079585;28;20533;-70
2022/09/05 13:43:43;;;;;;;0.63;0.50;;;29.80;1.00;;;;;;5091288;28;20511;-70
2022/09/05 13:46:18;;;;;;;0.60;0.50;;;29.80;1.00;;;;;;5090724;28;20890;-70
2022/09/05 13:48:53;;;;;;;0.70;0.60;;;29.70;1.00;;;;;;5092855;28;20452;-70
2022/09/05 13:51:30;;;;;;;0.60;0.53;;;29.90;1.00;;;;;;5094338;28;20477;-70
2022/09/05 13:54:28;;;;;;;1.53;0.50;;;30.00;1.00;;;;;;5094574;28;20453;-69
2022/09/05 13:57:16;;;;;;;0.67;0.60;;;30.10;1.00;;;;;;5079107;28;20450;-70
2022/09/05 14:00:16;;;;;;;0.70;0.50;;;30.10;1.00;;;;;;5073362;28;20501;-70
2022/09/05 14:03:03;;;;;;;0.50;0.50;;;30.10;1.00;;;;;;5040330;28;20462;-70
2022/09/05 14:05:41;;;;;;;0.60;0.50;;;30.00;1.00;;;;;;5080158;28;20442;-70
2022/09/05 14:08:39;;;;;;;0.60;0.50;;;29.80;1.00;;;;;;5079267;28;20552;-70